sensor_id;sensor_type;location;lat;lon;timestamp;temperature;humidity
5344;DHT22;2694;48.954;8.928;2023-05-29T00:02:10;12.90;99.90
5344;DHT22;2694;48.954;8.928;2023-05-29T00:04:36;12.90;99.90
5344;DHT22;2694;48.954;8.928;2023-05-29T00:07:05;12.90;99.90
5344;DHT22;2694;48.954;8.928;2023-05-29T00:09:32;12.80;99.90
5344;DHT22;2694;48.954;8.928;2023-05-29T00:11:59;12.80;99.90
5344;DHT22;2694;48.954;8.928;2023-05-29T00:14:28;12.80;99.90
5344;DHT22;2694;48.954;8.928;2023-05-29T00:16:55;12.80;99.90
5344;DHT22;2694;48.954;8.928;2023-05-29T00:19:22;12.80;99.90
5344;DHT22;2694;48.954;8.928;2023-05-29T00:21:50;12.70;99.90
5344;DHT22;2694;48.954;8.928;2023-05-29T00:24:17;12.70;99.90
5344;DHT22;2694;48.954;8.928;2023-05-29T00:26:45;12.70;99.90
5344;DHT22;2694;48.954;8.928;2023-05-29T00:29:12;12.60;99.90
5344;DHT22;2694;48.954;8.928;2023-05-29T00:31:41;12.60;99.90
5344;DHT22;2694;48.954;8.928;2023-05-29T00:34:08;12.50;99.90
5344;DHT22;2694;48.954;8.928;2023-05-29T00:36:35;12.40;99.90
5344;DHT22;2694;48.954;8.928;2023-05-29T00:39:02;12.40;99.90
5344;DHT22;2694;48.954;8.928;2023-05-29T00:41:29;12.30;99.90
5344;DHT22;2694;48.954;8.928;2023-05-29T00:43:56;12.30;99.90
5344;DHT22;2694;48.954;8.928;2023-05-29T00:46:23;12.30;99.90
5344;DHT22;2694;48.954;8.928;2023-05-29T00:48:51;12.30;99.90
5344;DHT22;2694;48.954;8.928;2023-05-29T00:51:18;12.30;99.90
5344;DHT22;2694;48.954;8.928;2023-05-29T00:53:46;12.20;99.90
5344;DHT22;2694;48.954;8.928;2023-05-29T00:56:14;12.20;99.90
5344;DHT22;2694;48.954;8.928;2023-05-29T00:58:42;12.20;99.90
5344;DHT22;2694;48.954;8.928;2023-05-29T01:01:09;12.20;99.90
5344;DHT22;2694;48.954;8.928;2023-05-29T01:03:37;12.20;99.90
5344;DHT22;2694;48.954;8.928;2023-05-29T01:06:06;12.10;99.90
5344;DHT22;2694;48.954;8.928;2023-05-29T01:08:33;12.10;99.90
5344;DHT22;2694;48.954;8.928;2023-05-29T01:11:04;12.20;99.90
5344;DHT22;2694;48.954;8.928;2023-05-29T01:13:35;12.20;99.90
5344;DHT22;2694;48.954;8.928;2023-05-29T01:16:07;12.20;99.90
5344;DHT22;2694;48.954;8.928;2023-05-29T01:18:41;12.10;99.90
5344;DHT22;2694;48.954;8.928;2023-05-29T01:21:20;12.10;99.90
5344;DHT22;2694;48.954;8.928;2023-05-29T01:24:03;12.00;99.90
5344;DHT22;2694;48.954;8.928;2023-05-29T01:29:23;11.80;99.90
5344;DHT22;2694;48.954;8.928;2023-05-29T01:31:52;11.70;99.90
5344;DHT22;2694;48.954;8.928;2023-05-29T01:34:19;11.70;99.90
5344;DHT22;2694;48.954;8.928;2023-05-29T01:36:46;11.60;99.90
5344;DHT22;2694;48.954;8.928;2023-05-29T01:39:13;11.50;99.90
5344;DHT22;2694;48.954;8.928;2023-05-29T01:41:43;11.40;99.90
5344;DHT22;2694;48.954;8.928;2023-05-29T01:44:12;11.20;99.90
5344;DHT22;2694;48.954;8.928;2023-05-29T01:46:40;11.10;99.90
5344;DHT22;2694;48.954;8.928;2023-05-29T01:49:08;11.00;99.90
5344;DHT22;2694;48.954;8.928;2023-05-29T01:51:36;11.00;99.90
5344;DHT22;2694;48.954;8.928;2023-05-29T01:54:04;11.00;99.90
5344;DHT22;2694;48.954;8.928;2023-05-29T01:56:31;11.00;99.90
5344;DHT22;2694;48.954;8.928;2023-05-29T01:59:02;11.00;99.90
5344;DHT22;2694;48.954;8.928;2023-05-29T02:01:31;10.90;99.90
5344;DHT22;2694;48.954;8.928;2023-05-29T02:03:58;10.90;99.90
5344;DHT22;2694;48.954;8.928;2023-05-29T02:06:25;10.90;99.90
5344;DHT22;2694;48.954;8.928;2023-05-29T02:08:52;10.90;99.90
5344;DHT22;2694;48.954;8.928;2023-05-29T02:11:18;10.80;99.90
5344;DHT22;2694;48.954;8.928;2023-05-29T02:13:46;10.80;99.90
5344;DHT22;2694;48.954;8.928;2023-05-29T02:16:14;10.80;99.90
5344;DHT22;2694;48.954;8.928;2023-05-29T02:18:42;10.80;99.90
5344;DHT22;2694;48.954;8.928;2023-05-29T02:21:09;10.80;99.90
5344;DHT22;2694;48.954;8.928;2023-05-29T02:23:36;10.80;99.90
5344;DHT22;2694;48.954;8.928;2023-05-29T02:26:04;10.80;99.90
5344;DHT22;2694;48.954;8.928;2023-05-29T02:28:30;10.80;99.90
5344;DHT22;2694;48.954;8.928;2023-05-29T02:30:57;10.80;99.90
5344;DHT22;2694;48.954;8.928;2023-05-29T02:33:26;10.70;99.90
5344;DHT22;2694;48.954;8.928;2023-05-29T02:35:52;10.70;99.90
5344;DHT22;2694;48.954;8.928;2023-05-29T02:38:19;10.70;99.90
5344;DHT22;2694;48.954;8.928;2023-05-29T02:40:46;10.60;99.90
5344;DHT22;2694;48.954;8.928;2023-05-29T02:43:13;10.70;99.90
5344;DHT22;2694;48.954;8.928;2023-05-29T02:45:40;10.70;99.90
5344;DHT22;2694;48.954;8.928;2023-05-29T02:48:07;10.70;99.90
5344;DHT22;2694;48.954;8.928;2023-05-29T02:50:35;10.70;99.90
5344;DHT22;2694;48.954;8.928;2023-05-29T02:53:02;10.70;99.90
5344;DHT22;2694;48.954;8.928;2023-05-29T02:55:29;10.70;99.90
5344;DHT22;2694;48.954;8.928;2023-05-29T02:57:57;10.60;99.90
5344;DHT22;2694;48.954;8.928;2023-05-29T03:00:25;10.50;99.90
5344;DHT22;2694;48.954;8.928;2023-05-29T03:02:53;10.50;99.90
5344;DHT22;2694;48.954;8.928;2023-05-29T03:05:20;10.60;99.90
5344;DHT22;2694;48.954;8.928;2023-05-29T03:07:49;10.60;99.90
5344;DHT22;2694;48.954;8.928;2023-05-29T03:10:16;10.50;99.90
5344;DHT22;2694;48.954;8.928;2023-05-29T03:12:44;10.50;99.90
5344;DHT22;2694;48.954;8.928;2023-05-29T03:15:10;10.40;99.90
5344;DHT22;2694;48.954;8.928;2023-05-29T03:17:37;10.30;99.90
5344;DHT22;2694;48.954;8.928;2023-05-29T03:20:05;10.20;99.90
5344;DHT22;2694;48.954;8.928;2023-05-29T03:22:33;10.20;99.90
5344;DHT22;2694;48.954;8.928;2023-05-29T03:25:02;10.10;99.90
5344;DHT22;2694;48.954;8.928;2023-05-29T03:27:29;10.10;99.90
5344;DHT22;2694;48.954;8.928;2023-05-29T03:29:56;9.90;99.90
5344;DHT22;2694;48.954;8.928;2023-05-29T03:32:23;9.90;99.90
5344;DHT22;2694;48.954;8.928;2023-05-29T03:34:50;9.90;99.90
5344;DHT22;2694;48.954;8.928;2023-05-29T03:37:17;10.00;99.90
5344;DHT22;2694;48.954;8.928;2023-05-29T03:39:44;10.10;99.90
5344;DHT22;2694;48.954;8.928;2023-05-29T03:42:13;10.00;99.90
5344;DHT22;2694;48.954;8.928;2023-05-29T03:44:40;9.90;99.90
5344;DHT22;2694;48.954;8.928;2023-05-29T03:47:07;10.00;99.90
5344;DHT22;2694;48.954;8.928;2023-05-29T03:49:34;10.00;99.90
5344;DHT22;2694;48.954;8.928;2023-05-29T03:52:01;10.10;99.90
5344;DHT22;2694;48.954;8.928;2023-05-29T03:54:28;10.10;99.90
5344;DHT22;2694;48.954;8.928;2023-05-29T03:56:55;10.10;99.90
5344;DHT22;2694;48.954;8.928;2023-05-29T03:59:24;10.10;99.90
5344;DHT22;2694;48.954;8.928;2023-05-29T04:01:50;10.20;99.90
5344;DHT22;2694;48.954;8.928;2023-05-29T04:04:17;10.10;99.90
5344;DHT22;2694;48.954;8.928;2023-05-29T04:06:44;10.20;99.90
5344;DHT22;2694;48.954;8.928;2023-05-29T04:09:11;10.20;99.90
5344;DHT22;2694;48.954;8.928;2023-05-29T04:11:38;10.10;99.90
5344;DHT22;2694;48.954;8.928;2023-05-29T04:14:07;10.10;99.90
5344;DHT22;2694;48.954;8.928;2023-05-29T04:16:35;10.10;99.90
5344;DHT22;2694;48.954;8.928;2023-05-29T04:19:02;10.10;99.90
5344;DHT22;2694;48.954;8.928;2023-05-29T04:21:29;10.20;99.90
5344;DHT22;2694;48.954;8.928;2023-05-29T04:23:58;10.30;99.90
5344;DHT22;2694;48.954;8.928;2023-05-29T04:26:25;10.40;99.90
5344;DHT22;2694;48.954;8.928;2023-05-29T04:28:52;10.50;99.90
5344;DHT22;2694;48.954;8.928;2023-05-29T04:31:22;10.70;99.90
5344;DHT22;2694;48.954;8.928;2023-05-29T04:33:52;10.80;99.90
5344;DHT22;2694;48.954;8.928;2023-05-29T04:36:22;11.00;99.90
5344;DHT22;2694;48.954;8.928;2023-05-29T04:38:51;11.10;99.90
5344;DHT22;2694;48.954;8.928;2023-05-29T04:41:18;11.30;99.90
5344;DHT22;2694;48.954;8.928;2023-05-29T04:43:49;11.40;99.90
5344;DHT22;2694;48.954;8.928;2023-05-29T04:46:16;11.60;99.90
5344;DHT22;2694;48.954;8.928;2023-05-29T04:48:43;11.70;99.90
5344;DHT22;2694;48.954;8.928;2023-05-29T04:51:11;11.80;99.90
5344;DHT22;2694;48.954;8.928;2023-05-29T04:53:38;11.90;99.90
5344;DHT22;2694;48.954;8.928;2023-05-29T04:56:07;12.10;99.90
5344;DHT22;2694;48.954;8.928;2023-05-29T04:58:33;12.20;99.90
5344;DHT22;2694;48.954;8.928;2023-05-29T05:01:00;12.30;99.90
5344;DHT22;2694;48.954;8.928;2023-05-29T05:03:28;12.40;99.90
5344;DHT22;2694;48.954;8.928;2023-05-29T05:05:56;12.40;99.90
5344;DHT22;2694;48.954;8.928;2023-05-29T05:08:25;12.50;99.90
5344;DHT22;2694;48.954;8.928;2023-05-29T05:10:51;12.70;99.90
5344;DHT22;2694;48.954;8.928;2023-05-29T05:13:18;12.80;99.90
5344;DHT22;2694;48.954;8.928;2023-05-29T05:15:45;13.00;99.90
5344;DHT22;2694;48.954;8.928;2023-05-29T05:18:12;13.10;99.90
5344;DHT22;2694;48.954;8.928;2023-05-29T05:20:39;13.10;99.90
5344;DHT22;2694;48.954;8.928;2023-05-29T05:23:06;13.60;99.90
5344;DHT22;2694;48.954;8.928;2023-05-29T05:25:34;13.20;99.90
5344;DHT22;2694;48.954;8.928;2023-05-29T05:28:01;13.30;99.90
5344;DHT22;2694;48.954;8.928;2023-05-29T05:30:29;13.50;99.90
5344;DHT22;2694;48.954;8.928;2023-05-29T05:32:56;13.70;99.90
5344;DHT22;2694;48.954;8.928;2023-05-29T05:35:23;13.80;99.90
5344;DHT22;2694;48.954;8.928;2023-05-29T05:37:50;13.80;99.90
5344;DHT22;2694;48.954;8.928;2023-05-29T05:40:16;13.90;99.90
5344;DHT22;2694;48.954;8.928;2023-05-29T05:42:45;14.00;99.90
5344;DHT22;2694;48.954;8.928;2023-05-29T05:45:12;14.20;99.90
5344;DHT22;2694;48.954;8.928;2023-05-29T05:47:38;14.30;99.90
5344;DHT22;2694;48.954;8.928;2023-05-29T05:50:06;14.40;99.90
5344;DHT22;2694;48.954;8.928;2023-05-29T05:52:33;14.50;99.90
5344;DHT22;2694;48.954;8.928;2023-05-29T05:55:00;14.80;99.90
5344;DHT22;2694;48.954;8.928;2023-05-29T05:57:27;14.80;99.90
5344;DHT22;2694;48.954;8.928;2023-05-29T05:59:55;14.90;99.90
5344;DHT22;2694;48.954;8.928;2023-05-29T06:02:22;15.10;99.90
5344;DHT22;2694;48.954;8.928;2023-05-29T06:04:49;15.20;99.90
5344;DHT22;2694;48.954;8.928;2023-05-29T06:07:15;15.30;99.90
5344;DHT22;2694;48.954;8.928;2023-05-29T06:09:43;15.50;99.90
5344;DHT22;2694;48.954;8.928;2023-05-29T06:12:10;15.90;99.90
5344;DHT22;2694;48.954;8.928;2023-05-29T06:14:37;16.10;99.90
5344;DHT22;2694;48.954;8.928;2023-05-29T06:17:06;16.30;99.90
5344;DHT22;2694;48.954;8.928;2023-05-29T06:19:33;16.40;99.90
5344;DHT22;2694;48.954;8.928;2023-05-29T06:22:00;16.50;99.90
5344;DHT22;2694;48.954;8.928;2023-05-29T06:24:26;16.60;99.90
5344;DHT22;2694;48.954;8.928;2023-05-29T06:26:53;16.70;99.90
5344;DHT22;2694;48.954;8.928;2023-05-29T06:29:20;16.90;99.90
5344;DHT22;2694;48.954;8.928;2023-05-29T06:31:47;17.00;99.90
5344;DHT22;2694;48.954;8.928;2023-05-29T06:34:15;17.40;99.90
5344;DHT22;2694;48.954;8.928;2023-05-29T06:36:42;17.60;99.90
5344;DHT22;2694;48.954;8.928;2023-05-29T06:39:09;17.90;99.90
5344;DHT22;2694;48.954;8.928;2023-05-29T06:41:36;18.10;99.90
5344;DHT22;2694;48.954;8.928;2023-05-29T06:44:03;18.30;99.90
5344;DHT22;2694;48.954;8.928;2023-05-29T06:46:30;18.40;99.90
5344;DHT22;2694;48.954;8.928;2023-05-29T06:48:57;18.30;99.90
5344;DHT22;2694;48.954;8.928;2023-05-29T06:51:25;18.40;99.90
5344;DHT22;2694;48.954;8.928;2023-05-29T06:53:52;18.50;99.90
5344;DHT22;2694;48.954;8.928;2023-05-29T06:56:19;18.50;99.90
5344;DHT22;2694;48.954;8.928;2023-05-29T06:58:46;18.80;99.90
5344;DHT22;2694;48.954;8.928;2023-05-29T07:01:13;18.80;99.90
5344;DHT22;2694;48.954;8.928;2023-05-29T07:03:40;18.90;99.90
5344;DHT22;2694;48.954;8.928;2023-05-29T07:06:07;18.90;99.90
5344;DHT22;2694;48.954;8.928;2023-05-29T07:08:35;19.00;99.90
5344;DHT22;2694;48.954;8.928;2023-05-29T07:11:02;19.10;99.90
5344;DHT22;2694;48.954;8.928;2023-05-29T07:13:29;19.20;99.90
5344;DHT22;2694;48.954;8.928;2023-05-29T07:15:56;19.40;99.90
5344;DHT22;2694;48.954;8.928;2023-05-29T07:18:23;19.70;99.90
5344;DHT22;2694;48.954;8.928;2023-05-29T07:20:50;19.80;99.90
5344;DHT22;2694;48.954;8.928;2023-05-29T07:23:16;20.00;99.90
5344;DHT22;2694;48.954;8.928;2023-05-29T07:25:45;20.00;99.90
5344;DHT22;2694;48.954;8.928;2023-05-29T07:28:12;20.10;99.90
5344;DHT22;2694;48.954;8.928;2023-05-29T07:30:38;20.30;99.50
5344;DHT22;2694;48.954;8.928;2023-05-29T07:33:05;20.30;99.80
5344;DHT22;2694;48.954;8.928;2023-05-29T07:35:32;20.30;99.60
5344;DHT22;2694;48.954;8.928;2023-05-29T07:37:59;20.30;99.90
5344;DHT22;2694;48.954;8.928;2023-05-29T07:40:26;20.70;99.90
5344;DHT22;2694;48.954;8.928;2023-05-29T07:42:55;20.90;99.60
5344;DHT22;2694;48.954;8.928;2023-05-29T07:45:22;21.00;98.00
5344;DHT22;2694;48.954;8.928;2023-05-29T07:47:48;20.90;97.70
5344;DHT22;2694;48.954;8.928;2023-05-29T07:50:15;21.00;98.00
5344;DHT22;2694;48.954;8.928;2023-05-29T07:52:42;21.20;97.70
5344;DHT22;2694;48.954;8.928;2023-05-29T07:55:09;21.20;96.60
5344;DHT22;2694;48.954;8.928;2023-05-29T07:57:36;21.30;97.10
5344;DHT22;2694;48.954;8.928;2023-05-29T08:00:07;21.50;96.10
5344;DHT22;2694;48.954;8.928;2023-05-29T08:02:34;21.50;94.60
5344;DHT22;2694;48.954;8.928;2023-05-29T08:05:02;21.60;95.90
5344;DHT22;2694;48.954;8.928;2023-05-29T08:07:29;21.50;94.10
5344;DHT22;2694;48.954;8.928;2023-05-29T08:09:56;21.30;93.90
5344;DHT22;2694;48.954;8.928;2023-05-29T08:12:23;21.20;94.10
5344;DHT22;2694;48.954;8.928;2023-05-29T08:14:50;21.30;95.20
5344;DHT22;2694;48.954;8.928;2023-05-29T08:17:20;21.60;94.60
5344;DHT22;2694;48.954;8.928;2023-05-29T08:19:47;22.00;94.00
5344;DHT22;2694;48.954;8.928;2023-05-29T08:22:14;21.80;92.90
5344;DHT22;2694;48.954;8.928;2023-05-29T08:24:41;21.80;94.60
5344;DHT22;2694;48.954;8.928;2023-05-29T08:27:09;21.90;93.70
5344;DHT22;2694;48.954;8.928;2023-05-29T08:29:38;21.90;95.10
5344;DHT22;2694;48.954;8.928;2023-05-29T08:32:08;22.20;93.60
5344;DHT22;2694;48.954;8.928;2023-05-29T08:34:36;22.40;94.80
5344;DHT22;2694;48.954;8.928;2023-05-29T08:37:04;22.60;92.70
5344;DHT22;2694;48.954;8.928;2023-05-29T08:39:32;22.60;92.80
5344;DHT22;2694;48.954;8.928;2023-05-29T08:42:03;22.70;93.60
5344;DHT22;2694;48.954;8.928;2023-05-29T08:44:33;23.00;92.90
5344;DHT22;2694;48.954;8.928;2023-05-29T08:47:03;23.10;91.90
5344;DHT22;2694;48.954;8.928;2023-05-29T08:49:34;23.10;92.00
5344;DHT22;2694;48.954;8.928;2023-05-29T08:52:10;23.00;91.40
5344;DHT22;2694;48.954;8.928;2023-05-29T08:54:39;22.90;91.20
5344;DHT22;2694;48.954;8.928;2023-05-29T08:57:06;23.00;91.40
5344;DHT22;2694;48.954;8.928;2023-05-29T08:59:33;23.30;92.60
5344;DHT22;2694;48.954;8.928;2023-05-29T09:02:01;23.40;91.70
5344;DHT22;2694;48.954;8.928;2023-05-29T09:04:30;23.20;91.20
5344;DHT22;2694;48.954;8.928;2023-05-29T09:06:57;23.10;90.70
5344;DHT22;2694;48.954;8.928;2023-05-29T09:09:27;23.20;91.70
5344;DHT22;2694;48.954;8.928;2023-05-29T09:11:55;23.20;91.00
5344;DHT22;2694;48.954;8.928;2023-05-29T09:14:35;23.40;91.90
5344;DHT22;2694;48.954;8.928;2023-05-29T09:17:04;23.30;91.10
5344;DHT22;2694;48.954;8.928;2023-05-29T09:19:32;23.10;91.70
5344;DHT22;2694;48.954;8.928;2023-05-29T09:22:03;23.10;93.00
5344;DHT22;2694;48.954;8.928;2023-05-29T09:24:32;23.20;91.80
5344;DHT22;2694;48.954;8.928;2023-05-29T09:27:00;23.30;92.70
5344;DHT22;2694;48.954;8.928;2023-05-29T09:29:27;23.30;92.00
5344;DHT22;2694;48.954;8.928;2023-05-29T09:31:54;23.40;91.50
5344;DHT22;2694;48.954;8.928;2023-05-29T09:34:23;23.60;91.40
5344;DHT22;2694;48.954;8.928;2023-05-29T09:36:52;23.70;90.80
5344;DHT22;2694;48.954;8.928;2023-05-29T09:39:19;23.70;91.10
5344;DHT22;2694;48.954;8.928;2023-05-29T09:41:47;23.60;91.40
5344;DHT22;2694;48.954;8.928;2023-05-29T09:44:15;23.90;90.40
5344;DHT22;2694;48.954;8.928;2023-05-29T09:46:42;24.00;91.10
5344;DHT22;2694;48.954;8.928;2023-05-29T09:49:13;24.30;90.70
5344;DHT22;2694;48.954;8.928;2023-05-29T09:51:42;24.00;89.90
5344;DHT22;2694;48.954;8.928;2023-05-29T09:54:15;24.00;91.70
5344;DHT22;2694;48.954;8.928;2023-05-29T09:56:43;24.10;90.60
5344;DHT22;2694;48.954;8.928;2023-05-29T09:59:14;23.80;90.50
5344;DHT22;2694;48.954;8.928;2023-05-29T10:01:42;24.00;90.20
5344;DHT22;2694;48.954;8.928;2023-05-29T10:04:09;24.00;90.80
5344;DHT22;2694;48.954;8.928;2023-05-29T10:06:37;24.30;90.00
5344;DHT22;2694;48.954;8.928;2023-05-29T10:09:07;24.30;91.30
5344;DHT22;2694;48.954;8.928;2023-05-29T10:11:38;24.60;91.70
5344;DHT22;2694;48.954;8.928;2023-05-29T10:14:06;25.00;91.60
5344;DHT22;2694;48.954;8.928;2023-05-29T10:16:41;25.30;89.20
5344;DHT22;2694;48.954;8.928;2023-05-29T10:19:12;25.30;87.50
5344;DHT22;2694;48.954;8.928;2023-05-29T10:21:40;25.00;86.90
5344;DHT22;2694;48.954;8.928;2023-05-29T10:24:07;24.50;87.30
5344;DHT22;2694;48.954;8.928;2023-05-29T10:26:38;24.30;88.70
5344;DHT22;2694;48.954;8.928;2023-05-29T10:29:09;24.50;87.80
5344;DHT22;2694;48.954;8.928;2023-05-29T10:32:00;24.60;86.70
5344;DHT22;2694;48.954;8.928;2023-05-29T10:34:33;24.60;86.30
5344;DHT22;2694;48.954;8.928;2023-05-29T10:37:08;24.60;84.00
5344;DHT22;2694;48.954;8.928;2023-05-29T10:39:35;24.80;84.20
5344;DHT22;2694;48.954;8.928;2023-05-29T10:42:02;25.00;85.00
5344;DHT22;2694;48.954;8.928;2023-05-29T10:44:49;25.10;84.00
5344;DHT22;2694;48.954;8.928;2023-05-29T10:47:24;25.10;82.40
5344;DHT22;2694;48.954;8.928;2023-05-29T10:49:51;25.20;82.90
5344;DHT22;2694;48.954;8.928;2023-05-29T10:52:19;25.40;81.20
5344;DHT22;2694;48.954;8.928;2023-05-29T10:54:52;25.40;81.60
5344;DHT22;2694;48.954;8.928;2023-05-29T10:57:23;25.30;81.20
5344;DHT22;2694;48.954;8.928;2023-05-29T11:00:08;24.90;81.10
5344;DHT22;2694;48.954;8.928;2023-05-29T11:02:40;24.90;84.70
5344;DHT22;2694;48.954;8.928;2023-05-29T11:05:23;25.20;79.40
5344;DHT22;2694;48.954;8.928;2023-05-29T11:07:56;25.00;77.90
5344;DHT22;2694;48.954;8.928;2023-05-29T11:10:55;25.00;81.20
5344;DHT22;2694;48.954;8.928;2023-05-29T11:13:27;25.10;78.90
5344;DHT22;2694;48.954;8.928;2023-05-29T11:16:35;25.00;80.20
5344;DHT22;2694;48.954;8.928;2023-05-29T11:19:06;24.90;81.10
5344;DHT22;2694;48.954;8.928;2023-05-29T11:21:48;24.90;79.00
5344;DHT22;2694;48.954;8.928;2023-05-29T11:24:22;25.00;80.00
5344;DHT22;2694;48.954;8.928;2023-05-29T11:26:53;25.10;81.70
5344;DHT22;2694;48.954;8.928;2023-05-29T11:29:27;25.30;80.60
5344;DHT22;2694;48.954;8.928;2023-05-29T11:32:01;25.40;81.20
5344;DHT22;2694;48.954;8.928;2023-05-29T11:34:40;25.30;79.70
5344;DHT22;2694;48.954;8.928;2023-05-29T11:37:15;25.10;77.90
5344;DHT22;2694;48.954;8.928;2023-05-29T11:39:51;25.10;77.70
5344;DHT22;2694;48.954;8.928;2023-05-29T11:42:19;25.10;75.60
5344;DHT22;2694;48.954;8.928;2023-05-29T11:44:54;25.20;76.10
5344;DHT22;2694;48.954;8.928;2023-05-29T11:47:22;25.10;76.00
5344;DHT22;2694;48.954;8.928;2023-05-29T11:49:51;25.00;72.60
5344;DHT22;2694;48.954;8.928;2023-05-29T11:52:18;24.90;72.50
5344;DHT22;2694;48.954;8.928;2023-05-29T11:54:48;25.00;72.00
5344;DHT22;2694;48.954;8.928;2023-05-29T11:57:17;25.00;72.60
5344;DHT22;2694;48.954;8.928;2023-05-29T11:59:45;25.00;71.20
5344;DHT22;2694;48.954;8.928;2023-05-29T12:02:12;25.00;70.30
5344;DHT22;2694;48.954;8.928;2023-05-29T12:04:40;24.90;69.80
5344;DHT22;2694;48.954;8.928;2023-05-29T12:07:18;25.00;70.30
5344;DHT22;2694;48.954;8.928;2023-05-29T12:09:45;25.10;69.50
5344;DHT22;2694;48.954;8.928;2023-05-29T12:12:13;25.20;70.00
5344;DHT22;2694;48.954;8.928;2023-05-29T12:14:40;25.30;68.90
5344;DHT22;2694;48.954;8.928;2023-05-29T12:17:07;25.10;66.40
5344;DHT22;2694;48.954;8.928;2023-05-29T12:19:34;25.00;67.60
5344;DHT22;2694;48.954;8.928;2023-05-29T12:22:01;25.20;67.30
5344;DHT22;2694;48.954;8.928;2023-05-29T12:24:29;25.30;65.60
5344;DHT22;2694;48.954;8.928;2023-05-29T12:26:57;25.20;66.00
5344;DHT22;2694;48.954;8.928;2023-05-29T12:29:30;25.10;64.00
5344;DHT22;2694;48.954;8.928;2023-05-29T12:31:57;25.20;64.60
5344;DHT22;2694;48.954;8.928;2023-05-29T12:34:25;25.40;64.00
5344;DHT22;2694;48.954;8.928;2023-05-29T12:36:51;25.30;64.60
5344;DHT22;2694;48.954;8.928;2023-05-29T12:39:18;25.30;64.30
5344;DHT22;2694;48.954;8.928;2023-05-29T12:41:46;25.30;64.30
5344;DHT22;2694;48.954;8.928;2023-05-29T12:44:13;25.10;64.60
5344;DHT22;2694;48.954;8.928;2023-05-29T12:46:42;25.20;64.90
5344;DHT22;2694;48.954;8.928;2023-05-29T12:49:12;25.30;65.00
5344;DHT22;2694;48.954;8.928;2023-05-29T12:51:41;25.30;65.20
5344;DHT22;2694;48.954;8.928;2023-05-29T12:54:09;25.40;65.20
5344;DHT22;2694;48.954;8.928;2023-05-29T12:56:37;25.40;64.30
5344;DHT22;2694;48.954;8.928;2023-05-29T12:59:07;25.50;65.90
5344;DHT22;2694;48.954;8.928;2023-05-29T13:01:34;25.70;63.80
5344;DHT22;2694;48.954;8.928;2023-05-29T13:04:01;25.60;61.10
5344;DHT22;2694;48.954;8.928;2023-05-29T13:06:29;25.40;61.50
5344;DHT22;2694;48.954;8.928;2023-05-29T13:08:56;25.30;62.60
5344;DHT22;2694;48.954;8.928;2023-05-29T13:11:23;25.50;61.30
5344;DHT22;2694;48.954;8.928;2023-05-29T13:13:51;25.50;62.10
5344;DHT22;2694;48.954;8.928;2023-05-29T13:16:19;25.50;61.50
5344;DHT22;2694;48.954;8.928;2023-05-29T13:18:46;25.50;60.20
5344;DHT22;2694;48.954;8.928;2023-05-29T13:21:13;25.40;60.70
5344;DHT22;2694;48.954;8.928;2023-05-29T13:23:40;25.40;59.40
5344;DHT22;2694;48.954;8.928;2023-05-29T13:26:06;25.50;59.40
5344;DHT22;2694;48.954;8.928;2023-05-29T13:28:33;25.40;59.30
5344;DHT22;2694;48.954;8.928;2023-05-29T13:31:00;25.20;60.70
5344;DHT22;2694;48.954;8.928;2023-05-29T13:33:29;25.10;60.80
5344;DHT22;2694;48.954;8.928;2023-05-29T13:35:55;25.30;59.50
5344;DHT22;2694;48.954;8.928;2023-05-29T13:38:22;25.40;59.90
5344;DHT22;2694;48.954;8.928;2023-05-29T13:40:49;25.50;60.10
5344;DHT22;2694;48.954;8.928;2023-05-29T13:43:16;25.60;60.60
5344;DHT22;2694;48.954;8.928;2023-05-29T13:45:43;25.70;61.90
5344;DHT22;2694;48.954;8.928;2023-05-29T13:48:10;25.60;60.20
5344;DHT22;2694;48.954;8.928;2023-05-29T13:50:38;25.60;60.90
5344;DHT22;2694;48.954;8.928;2023-05-29T13:53:05;25.80;60.20
5344;DHT22;2694;48.954;8.928;2023-05-29T13:55:32;25.80;60.10
5344;DHT22;2694;48.954;8.928;2023-05-29T13:57:59;25.90;59.50
5344;DHT22;2694;48.954;8.928;2023-05-29T14:00:27;26.00;60.50
5344;DHT22;2694;48.954;8.928;2023-05-29T14:02:56;25.90;59.70
5344;DHT22;2694;48.954;8.928;2023-05-29T14:05:23;25.90;59.70
5344;DHT22;2694;48.954;8.928;2023-05-29T14:07:52;25.80;60.30
5344;DHT22;2694;48.954;8.928;2023-05-29T14:10:20;25.70;61.10
5344;DHT22;2694;48.954;8.928;2023-05-29T14:12:46;25.80;61.10
5344;DHT22;2694;48.954;8.928;2023-05-29T14:15:13;26.00;60.10
5344;DHT22;2694;48.954;8.928;2023-05-29T14:17:40;26.00;59.00
5344;DHT22;2694;48.954;8.928;2023-05-29T14:20:08;26.00;58.50
5344;DHT22;2694;48.954;8.928;2023-05-29T14:22:35;25.80;58.40
5344;DHT22;2694;48.954;8.928;2023-05-29T14:25:04;25.70;59.40
5344;DHT22;2694;48.954;8.928;2023-05-29T14:27:31;25.80;58.90
5344;DHT22;2694;48.954;8.928;2023-05-29T14:29:58;25.70;58.30
5344;DHT22;2694;48.954;8.928;2023-05-29T14:32:25;25.80;59.20
5344;DHT22;2694;48.954;8.928;2023-05-29T14:34:52;25.80;58.50
5344;DHT22;2694;48.954;8.928;2023-05-29T14:37:19;25.90;58.90
5344;DHT22;2694;48.954;8.928;2023-05-29T14:39:46;25.80;58.70
5344;DHT22;2694;48.954;8.928;2023-05-29T14:42:14;25.90;60.00
5344;DHT22;2694;48.954;8.928;2023-05-29T14:44:42;25.90;58.40
5344;DHT22;2694;48.954;8.928;2023-05-29T14:47:09;25.90;59.70
5344;DHT22;2694;48.954;8.928;2023-05-29T14:49:36;25.90;59.30
5344;DHT22;2694;48.954;8.928;2023-05-29T14:52:04;25.90;59.50
5344;DHT22;2694;48.954;8.928;2023-05-29T14:54:31;25.90;59.00
5344;DHT22;2694;48.954;8.928;2023-05-29T14:56:58;25.90;58.30
5344;DHT22;2694;48.954;8.928;2023-05-29T14:59:27;25.80;57.80
5344;DHT22;2694;48.954;8.928;2023-05-29T15:01:54;25.60;57.60
5344;DHT22;2694;48.954;8.928;2023-05-29T15:04:22;25.50;58.10
5344;DHT22;2694;48.954;8.928;2023-05-29T15:06:49;25.60;59.40
5344;DHT22;2694;48.954;8.928;2023-05-29T15:09:16;25.60;58.30
5344;DHT22;2694;48.954;8.928;2023-05-29T15:11:42;25.70;58.00
5344;DHT22;2694;48.954;8.928;2023-05-29T15:14:10;25.70;59.90
5344;DHT22;2694;48.954;8.928;2023-05-29T15:16:38;25.70;58.00
5344;DHT22;2694;48.954;8.928;2023-05-29T15:19:05;25.60;59.20
5344;DHT22;2694;48.954;8.928;2023-05-29T15:21:33;25.70;58.50
5344;DHT22;2694;48.954;8.928;2023-05-29T15:24:00;25.70;57.90
5344;DHT22;2694;48.954;8.928;2023-05-29T15:26:27;25.70;58.70
5344;DHT22;2694;48.954;8.928;2023-05-29T15:28:54;25.80;58.50
5344;DHT22;2694;48.954;8.928;2023-05-29T15:31:21;25.80;58.70
5344;DHT22;2694;48.954;8.928;2023-05-29T15:33:52;25.90;58.70
5344;DHT22;2694;48.954;8.928;2023-05-29T15:36:19;25.90;57.90
5344;DHT22;2694;48.954;8.928;2023-05-29T15:38:46;26.00;59.00
5344;DHT22;2694;48.954;8.928;2023-05-29T15:41:14;26.00;59.20
5344;DHT22;2694;48.954;8.928;2023-05-29T15:43:41;25.90;58.30
5344;DHT22;2694;48.954;8.928;2023-05-29T15:46:08;25.80;58.50
5344;DHT22;2694;48.954;8.928;2023-05-29T15:48:35;25.80;58.60
5344;DHT22;2694;48.954;8.928;2023-05-29T15:51:03;25.80;58.90
5344;DHT22;2694;48.954;8.928;2023-05-29T15:53:30;25.70;58.10
5344;DHT22;2694;48.954;8.928;2023-05-29T15:55:57;25.70;58.50
5344;DHT22;2694;48.954;8.928;2023-05-29T15:58:24;25.70;58.00
5344;DHT22;2694;48.954;8.928;2023-05-29T16:00:51;25.60;58.30
5344;DHT22;2694;48.954;8.928;2023-05-29T16:03:18;25.70;59.30
5344;DHT22;2694;48.954;8.928;2023-05-29T16:05:45;25.70;59.30
5344;DHT22;2694;48.954;8.928;2023-05-29T16:08:14;25.60;58.40
5344;DHT22;2694;48.954;8.928;2023-05-29T16:10:40;25.50;58.70
5344;DHT22;2694;48.954;8.928;2023-05-29T16:13:07;25.40;58.70